LIPZ Airport Information

Runway Information
Runway 04L Length 9121 ft width 148 ft
Elevation 7 ft Threshold 308 ft Heading 42
Runway 22R Length 9121 ft Width 148 ft
Elevation 7 ft Threshold 0 ft Heading 222
Runway 04R Length 10827 ft width 148 ft
Elevation 7 ft Threshold 0 ft Heading 42
Runway 22L Length 10827 ft Width 148 ft
Elevation 7 ft Threshold 0 ft Heading 222
Airport Frequencies
Type APP Name APP Frequency 118.9 MHZ
Type ATIS Name ATIS Frequency 122.225 MHZ
Type GND Name GND Frequency 121.7 MHZ
Type TWR Name TWR Frequency 120.2 MHZ
Airport Navaids
Type VOR-DME Name Tessera Frequency 115300 KHZ
Type NDB Name Venezia Frequency 379 KHZ
Airport Weather Information & NOTAM
ADDS - METARS form results

(1317 UTC 22 June 2018)
 
METAR text: LIPZ 221250Z 09015KT 9999 SCT040 22/15 Q1015 BECMG 07020G30KT
Conditions at: LIPZ (VENEZIA/TESSERA , IT) observed 1250 UTC 22 June 2018
Temperature: 22.0°C (72°F)
Dewpoint: 15.0°C (59°F) [RH = 65%]
Pressure (altimeter): 29.97 inches Hg (1015.0 mb)
Winds: from the E (90 degrees) at 17 MPH (15 knots; 7.8 m/s)
Visibility: 6 or more miles (10+ km)
Ceiling: at least 12,000 feet AGL
Clouds: scattered clouds at 4000 feet AGL
Weather: no significant weather observed at this time

METAR text: LIPZ 221220Z 09015G25KT 9999 SCT040 22/15 Q1015 BECMG 07020G30KT
Conditions at: LIPZ (VENEZIA/TESSERA , IT) observed 1220 UTC 22 June 2018
Temperature: 22.0°C (72°F)
Dewpoint: 15.0°C (59°F) [RH = 65%]
Pressure (altimeter): 29.97 inches Hg (1015.0 mb)
Winds: from the E (90 degrees) at 17 MPH (15 knots; 7.8 m/s)
gusting to 29 MPH (25 knots; 13.0 m/s)
Visibility: 6 or more miles (10+ km)
Ceiling: at least 12,000 feet AGL
Clouds: scattered clouds at 4000 feet AGL
Weather: no significant weather observed at this time